sensor_id;sensor_type;location;lat;lon;timestamp;P1;durP1;ratioP1;P2;durP2;ratioP2
67074;SDS011;53990;50.334;18.640;2023-02-07T00:01:37;128.80;;;63.40;;
67074;SDS011;53990;50.334;18.640;2023-02-07T00:04:05;141.20;;;66.50;;
67074;SDS011;53990;50.334;18.640;2023-02-07T00:06:34;129.60;;;63.20;;
67074;SDS011;53990;50.334;18.640;2023-02-07T00:09:05;129.90;;;62.20;;
67074;SDS011;53990;50.334;18.640;2023-02-07T00:11:34;129.10;;;63.20;;
67074;SDS011;53990;50.334;18.640;2023-02-07T00:14:02;129.80;;;63.00;;
67074;SDS011;53990;50.334;18.640;2023-02-07T00:16:29;136.70;;;65.30;;
67074;SDS011;53990;50.334;18.640;2023-02-07T00:18:57;134.90;;;65.70;;
67074;SDS011;53990;50.334;18.640;2023-02-07T00:21:25;144.90;;;69.70;;
67074;SDS011;53990;50.334;18.640;2023-02-07T00:23:53;139.50;;;69.50;;
67074;SDS011;53990;50.334;18.640;2023-02-07T00:26:22;142.90;;;69.20;;
67074;SDS011;53990;50.334;18.640;2023-02-07T00:28:53;142.00;;;69.10;;
67074;SDS011;53990;50.334;18.640;2023-02-07T00:31:30;149.30;;;70.30;;
67074;SDS011;53990;50.334;18.640;2023-02-07T00:34:01;140.80;;;68.10;;
67074;SDS011;53990;50.334;18.640;2023-02-07T00:36:30;146.10;;;70.70;;
67074;SDS011;53990;50.334;18.640;2023-02-07T00:38:59;137.80;;;67.80;;
67074;SDS011;53990;50.334;18.640;2023-02-07T00:41:28;152.20;;;66.70;;
67074;SDS011;53990;50.334;18.640;2023-02-07T00:43:55;134.60;;;64.30;;
67074;SDS011;53990;50.334;18.640;2023-02-07T00:46:23;143.20;;;67.00;;
67074;SDS011;53990;50.334;18.640;2023-02-07T00:48:51;134.00;;;62.30;;
67074;SDS011;53990;50.334;18.640;2023-02-07T00:51:18;141.90;;;65.30;;
67074;SDS011;53990;50.334;18.640;2023-02-07T00:53:46;136.10;;;63.20;;
67074;SDS011;53990;50.334;18.640;2023-02-07T00:56:14;126.20;;;61.90;;
67074;SDS011;53990;50.334;18.640;2023-02-07T00:58:41;125.50;;;62.20;;
67074;SDS011;53990;50.334;18.640;2023-02-07T01:01:09;138.10;;;66.70;;
67074;SDS011;53990;50.334;18.640;2023-02-07T01:03:36;143.70;;;67.40;;
67074;SDS011;53990;50.334;18.640;2023-02-07T01:06:04;138.30;;;66.70;;
67074;SDS011;53990;50.334;18.640;2023-02-07T01:08:32;148.00;;;66.10;;
67074;SDS011;53990;50.334;18.640;2023-02-07T01:11:07;133.50;;;62.90;;
67074;SDS011;53990;50.334;18.640;2023-02-07T01:13:35;148.20;;;66.30;;
67074;SDS011;53990;50.334;18.640;2023-02-07T01:16:03;127.30;;;63.30;;
67074;SDS011;53990;50.334;18.640;2023-02-07T01:18:30;137.40;;;66.40;;
67074;SDS011;53990;50.334;18.640;2023-02-07T01:20:58;141.60;;;70.30;;
67074;SDS011;53990;50.334;18.640;2023-02-07T01:23:28;158.40;;;75.90;;
67074;SDS011;53990;50.334;18.640;2023-02-07T01:25:55;160.60;;;74.00;;
67074;SDS011;53990;50.334;18.640;2023-02-07T01:28:22;159.70;;;75.10;;
67074;SDS011;53990;50.334;18.640;2023-02-07T01:30:50;137.00;;;68.00;;
67074;SDS011;53990;50.334;18.640;2023-02-07T01:33:17;146.60;;;71.50;;
67074;SDS011;53990;50.334;18.640;2023-02-07T01:35:44;152.70;;;70.80;;
67074;SDS011;53990;50.334;18.640;2023-02-07T01:38:14;139.50;;;67.80;;
67074;SDS011;53990;50.334;18.640;2023-02-07T01:40:41;137.00;;;65.40;;
67074;SDS011;53990;50.334;18.640;2023-02-07T01:43:17;136.40;;;66.30;;
67074;SDS011;53990;50.334;18.640;2023-02-07T01:45:46;133.80;;;63.40;;
67074;SDS011;53990;50.334;18.640;2023-02-07T01:48:18;148.30;;;71.50;;
67074;SDS011;53990;50.334;18.640;2023-02-07T01:50:48;149.90;;;69.40;;
67074;SDS011;53990;50.334;18.640;2023-02-07T01:53:18;151.30;;;72.00;;
67074;SDS011;53990;50.334;18.640;2023-02-07T01:55:47;156.40;;;73.40;;
67074;SDS011;53990;50.334;18.640;2023-02-07T01:58:16;153.20;;;74.60;;
67074;SDS011;53990;50.334;18.640;2023-02-07T02:00:44;148.70;;;74.00;;
67074;SDS011;53990;50.334;18.640;2023-02-07T02:03:12;163.90;;;79.90;;
67074;SDS011;53990;50.334;18.640;2023-02-07T02:05:41;164.20;;;77.10;;
67074;SDS011;53990;50.334;18.640;2023-02-07T02:08:09;142.30;;;72.50;;
67074;SDS011;53990;50.334;18.640;2023-02-07T02:16:16;153.10;;;68.70;;
67074;SDS011;53990;50.334;18.640;2023-02-07T02:19:07;147.30;;;69.70;;
67074;SDS011;53990;50.334;18.640;2023-02-07T02:25:08;150.20;;;71.50;;
67074;SDS011;53990;50.334;18.640;2023-02-07T02:33:42;170.90;;;78.10;;
67074;SDS011;53990;50.334;18.640;2023-02-07T02:39:55;182.10;;;81.30;;
67074;SDS011;53990;50.334;18.640;2023-02-07T02:42:28;154.60;;;73.50;;
67074;SDS011;53990;50.334;18.640;2023-02-07T02:47:33;183.40;;;84.00;;
67074;SDS011;53990;50.334;18.640;2023-02-07T02:50:00;175.70;;;84.70;;
67074;SDS011;53990;50.334;18.640;2023-02-07T02:52:28;187.30;;;84.40;;
67074;SDS011;53990;50.334;18.640;2023-02-07T02:54:55;170.00;;;82.20;;
67074;SDS011;53990;50.334;18.640;2023-02-07T02:57:53;196.00;;;87.40;;
67074;SDS011;53990;50.334;18.640;2023-02-07T03:00:44;176.50;;;82.20;;
67074;SDS011;53990;50.334;18.640;2023-02-07T03:06:20;186.60;;;88.00;;
67074;SDS011;53990;50.334;18.640;2023-02-07T03:09:36;180.90;;;81.80;;
67074;SDS011;53990;50.334;18.640;2023-02-07T03:12:15;186.30;;;86.90;;
67074;SDS011;53990;50.334;18.640;2023-02-07T03:18:08;197.60;;;89.30;;
67074;SDS011;53990;50.334;18.640;2023-02-07T03:20:08;166.30;;;78.20;;
67074;SDS011;53990;50.334;18.640;2023-02-07T03:22:38;187.70;;;84.70;;
67074;SDS011;53990;50.334;18.640;2023-02-07T03:25:07;191.40;;;92.70;;
67074;SDS011;53990;50.334;18.640;2023-02-07T03:27:36;190.00;;;87.60;;
67074;SDS011;53990;50.334;18.640;2023-02-07T03:30:10;203.30;;;91.90;;
67074;SDS011;53990;50.334;18.640;2023-02-07T03:32:41;189.60;;;87.00;;
67074;SDS011;53990;50.334;18.640;2023-02-07T03:35:20;205.40;;;91.20;;
67074;SDS011;53990;50.334;18.640;2023-02-07T03:37:58;205.50;;;92.50;;
67074;SDS011;53990;50.334;18.640;2023-02-07T03:40:28;190.00;;;87.80;;
67074;SDS011;53990;50.334;18.640;2023-02-07T03:43:06;200.70;;;89.30;;
67074;SDS011;53990;50.334;18.640;2023-02-07T03:45:34;202.20;;;92.90;;
67074;SDS011;53990;50.334;18.640;2023-02-07T03:48:02;202.40;;;90.70;;
67074;SDS011;53990;50.334;18.640;2023-02-07T03:50:29;203.30;;;96.40;;
67074;SDS011;53990;50.334;18.640;2023-02-07T03:52:56;198.10;;;94.10;;
67074;SDS011;53990;50.334;18.640;2023-02-07T03:55:23;200.90;;;91.70;;
67074;SDS011;53990;50.334;18.640;2023-02-07T03:57:51;207.00;;;95.20;;
67074;SDS011;53990;50.334;18.640;2023-02-07T04:00:18;197.30;;;91.50;;
67074;SDS011;53990;50.334;18.640;2023-02-07T04:02:46;204.10;;;94.30;;
67074;SDS011;53990;50.334;18.640;2023-02-07T04:05:13;206.10;;;95.60;;
67074;SDS011;53990;50.334;18.640;2023-02-07T04:07:43;212.70;;;94.90;;
67074;SDS011;53990;50.334;18.640;2023-02-07T04:10:11;212.20;;;96.80;;
67074;SDS011;53990;50.334;18.640;2023-02-07T04:12:38;220.60;;;98.90;;
67074;SDS011;53990;50.334;18.640;2023-02-07T04:15:06;212.40;;;96.50;;
67074;SDS011;53990;50.334;18.640;2023-02-07T04:17:34;218.50;;;95.20;;
67074;SDS011;53990;50.334;18.640;2023-02-07T04:20:03;213.40;;;95.60;;
67074;SDS011;53990;50.334;18.640;2023-02-07T04:22:31;212.40;;;96.30;;
67074;SDS011;53990;50.334;18.640;2023-02-07T04:24:58;207.80;;;98.40;;
67074;SDS011;53990;50.334;18.640;2023-02-07T04:27:26;217.70;;;96.40;;
67074;SDS011;53990;50.334;18.640;2023-02-07T04:29:53;209.80;;;98.00;;
67074;SDS011;53990;50.334;18.640;2023-02-07T04:32:20;206.30;;;98.10;;
67074;SDS011;53990;50.334;18.640;2023-02-07T04:34:48;194.60;;;91.50;;
67074;SDS011;53990;50.334;18.640;2023-02-07T04:37:15;220.10;;;97.40;;
67074;SDS011;53990;50.334;18.640;2023-02-07T04:39:42;208.40;;;95.00;;
67074;SDS011;53990;50.334;18.640;2023-02-07T04:42:10;220.90;;;98.30;;
67074;SDS011;53990;50.334;18.640;2023-02-07T04:44:37;215.50;;;97.00;;
67074;SDS011;53990;50.334;18.640;2023-02-07T04:47:05;218.50;;;98.00;;
67074;SDS011;53990;50.334;18.640;2023-02-07T04:49:32;221.70;;;98.40;;
67074;SDS011;53990;50.334;18.640;2023-02-07T04:51:59;225.00;;;98.70;;
67074;SDS011;53990;50.334;18.640;2023-02-07T04:54:27;223.60;;;100.10;;
67074;SDS011;53990;50.334;18.640;2023-02-07T04:56:54;213.30;;;97.60;;
67074;SDS011;53990;50.334;18.640;2023-02-07T04:59:21;218.30;;;96.30;;
67074;SDS011;53990;50.334;18.640;2023-02-07T05:01:48;212.60;;;96.50;;
67074;SDS011;53990;50.334;18.640;2023-02-07T05:04:16;219.20;;;96.90;;
67074;SDS011;53990;50.334;18.640;2023-02-07T05:06:43;218.00;;;101.40;;
67074;SDS011;53990;50.334;18.640;2023-02-07T05:09:10;224.70;;;98.60;;
67074;SDS011;53990;50.334;18.640;2023-02-07T05:11:38;225.20;;;97.80;;
67074;SDS011;53990;50.334;18.640;2023-02-07T05:14:05;213.30;;;98.00;;
67074;SDS011;53990;50.334;18.640;2023-02-07T05:16:32;210.10;;;97.50;;
67074;SDS011;53990;50.334;18.640;2023-02-07T05:19:00;218.30;;;97.40;;
67074;SDS011;53990;50.334;18.640;2023-02-07T05:21:27;206.30;;;93.90;;
67074;SDS011;53990;50.334;18.640;2023-02-07T05:23:54;212.60;;;95.80;;
67074;SDS011;53990;50.334;18.640;2023-02-07T05:26:21;209.00;;;94.30;;
67074;SDS011;53990;50.334;18.640;2023-02-07T05:28:49;203.80;;;90.00;;
67074;SDS011;53990;50.334;18.640;2023-02-07T05:31:16;187.20;;;88.00;;
67074;SDS011;53990;50.334;18.640;2023-02-07T05:33:43;197.30;;;88.00;;
67074;SDS011;53990;50.334;18.640;2023-02-07T05:36:10;195.90;;;90.20;;
67074;SDS011;53990;50.334;18.640;2023-02-07T05:38:38;179.40;;;84.10;;
67074;SDS011;53990;50.334;18.640;2023-02-07T05:41:05;191.90;;;88.10;;
67074;SDS011;53990;50.334;18.640;2023-02-07T05:43:33;190.70;;;85.80;;
67074;SDS011;53990;50.334;18.640;2023-02-07T05:46:00;183.50;;;83.10;;
67074;SDS011;53990;50.334;18.640;2023-02-07T05:48:28;184.10;;;82.30;;
67074;SDS011;53990;50.334;18.640;2023-02-07T05:50:55;184.60;;;83.50;;
67074;SDS011;53990;50.334;18.640;2023-02-07T05:53:22;189.40;;;87.20;;
67074;SDS011;53990;50.334;18.640;2023-02-07T05:55:51;184.50;;;84.70;;
67074;SDS011;53990;50.334;18.640;2023-02-07T05:58:18;188.90;;;85.00;;
67074;SDS011;53990;50.334;18.640;2023-02-07T06:00:46;191.60;;;87.60;;
67074;SDS011;53990;50.334;18.640;2023-02-07T06:03:14;183.70;;;86.10;;
67074;SDS011;53990;50.334;18.640;2023-02-07T06:05:42;191.20;;;85.90;;
67074;SDS011;53990;50.334;18.640;2023-02-07T06:08:09;187.80;;;87.90;;
67074;SDS011;53990;50.334;18.640;2023-02-07T06:10:36;188.70;;;88.60;;
67074;SDS011;53990;50.334;18.640;2023-02-07T06:13:04;182.10;;;84.40;;
67074;SDS011;53990;50.334;18.640;2023-02-07T06:15:31;184.00;;;84.30;;
67074;SDS011;53990;50.334;18.640;2023-02-07T06:17:58;177.60;;;80.50;;
67074;SDS011;53990;50.334;18.640;2023-02-07T06:20:26;195.70;;;86.20;;
67074;SDS011;53990;50.334;18.640;2023-02-07T06:22:53;183.00;;;83.30;;
67074;SDS011;53990;50.334;18.640;2023-02-07T06:25:20;182.10;;;81.40;;
67074;SDS011;53990;50.334;18.640;2023-02-07T06:27:48;186.50;;;81.60;;
67074;SDS011;53990;50.334;18.640;2023-02-07T06:30:15;191.40;;;84.10;;
67074;SDS011;53990;50.334;18.640;2023-02-07T06:32:45;195.10;;;86.40;;
67074;SDS011;53990;50.334;18.640;2023-02-07T06:35:13;183.00;;;85.30;;
67074;SDS011;53990;50.334;18.640;2023-02-07T06:37:40;188.30;;;86.80;;
67074;SDS011;53990;50.334;18.640;2023-02-07T06:40:08;188.60;;;82.90;;
67074;SDS011;53990;50.334;18.640;2023-02-07T06:42:35;184.60;;;85.10;;
67074;SDS011;53990;50.334;18.640;2023-02-07T06:45:03;196.50;;;91.30;;
67074;SDS011;53990;50.334;18.640;2023-02-07T06:47:30;205.80;;;94.30;;
67074;SDS011;53990;50.334;18.640;2023-02-07T06:49:59;192.60;;;88.80;;
67074;SDS011;53990;50.334;18.640;2023-02-07T06:52:27;216.70;;;97.00;;
67074;SDS011;53990;50.334;18.640;2023-02-07T06:54:54;246.80;;;109.20;;
67074;SDS011;53990;50.334;18.640;2023-02-07T06:57:21;233.50;;;108.60;;
67074;SDS011;53990;50.334;18.640;2023-02-07T06:59:49;237.00;;;105.80;;
67074;SDS011;53990;50.334;18.640;2023-02-07T07:02:16;237.00;;;111.50;;
67074;SDS011;53990;50.334;18.640;2023-02-07T07:04:43;264.90;;;120.20;;
67074;SDS011;53990;50.334;18.640;2023-02-07T07:07:11;259.30;;;120.70;;
67074;SDS011;53990;50.334;18.640;2023-02-07T07:09:38;276.40;;;125.70;;
67074;SDS011;53990;50.334;18.640;2023-02-07T07:12:06;278.40;;;126.00;;
67074;SDS011;53990;50.334;18.640;2023-02-07T07:14:33;297.60;;;136.90;;
67074;SDS011;53990;50.334;18.640;2023-02-07T07:17:01;282.40;;;128.70;;
67074;SDS011;53990;50.334;18.640;2023-02-07T07:19:29;283.60;;;131.20;;
67074;SDS011;53990;50.334;18.640;2023-02-07T07:21:56;293.60;;;136.80;;
67074;SDS011;53990;50.334;18.640;2023-02-07T07:24:25;278.60;;;128.00;;
67074;SDS011;53990;50.334;18.640;2023-02-07T07:26:53;278.80;;;128.90;;
67074;SDS011;53990;50.334;18.640;2023-02-07T07:29:22;271.10;;;123.20;;
67074;SDS011;53990;50.334;18.640;2023-02-07T07:31:49;279.50;;;130.10;;
67074;SDS011;53990;50.334;18.640;2023-02-07T07:34:16;270.50;;;124.30;;
67074;SDS011;53990;50.334;18.640;2023-02-07T07:36:44;266.70;;;121.90;;
67074;SDS011;53990;50.334;18.640;2023-02-07T07:39:11;254.80;;;117.90;;
67074;SDS011;53990;50.334;18.640;2023-02-07T07:41:39;250.20;;;116.90;;
67074;SDS011;53990;50.334;18.640;2023-02-07T07:44:06;241.00;;;111.40;;
67074;SDS011;53990;50.334;18.640;2023-02-07T07:46:33;234.60;;;110.10;;
67074;SDS011;53990;50.334;18.640;2023-02-07T07:49:01;250.50;;;118.20;;
67074;SDS011;53990;50.334;18.640;2023-02-07T07:51:28;254.90;;;117.50;;
67074;SDS011;53990;50.334;18.640;2023-02-07T07:53:56;239.30;;;115.40;;
67074;SDS011;53990;50.334;18.640;2023-02-07T07:56:23;241.80;;;114.20;;
67074;SDS011;53990;50.334;18.640;2023-02-07T07:58:50;247.60;;;116.20;;
67074;SDS011;53990;50.334;18.640;2023-02-07T08:01:17;245.40;;;115.50;;
67074;SDS011;53990;50.334;18.640;2023-02-07T08:03:45;252.10;;;119.00;;
67074;SDS011;53990;50.334;18.640;2023-02-07T08:06:12;263.50;;;124.60;;
67074;SDS011;53990;50.334;18.640;2023-02-07T08:08:40;245.30;;;119.80;;
67074;SDS011;53990;50.334;18.640;2023-02-07T08:11:08;247.00;;;116.80;;
67074;SDS011;53990;50.334;18.640;2023-02-07T08:13:36;263.00;;;123.00;;
67074;SDS011;53990;50.334;18.640;2023-02-07T08:16:05;256.70;;;118.00;;
67074;SDS011;53990;50.334;18.640;2023-02-07T08:18:34;238.30;;;113.60;;
67074;SDS011;53990;50.334;18.640;2023-02-07T08:21:02;248.40;;;116.20;;
67074;SDS011;53990;50.334;18.640;2023-02-07T08:23:29;214.20;;;100.70;;
67074;SDS011;53990;50.334;18.640;2023-02-07T08:25:57;184.20;;;88.50;;
67074;SDS011;53990;50.334;18.640;2023-02-07T08:28:25;186.40;;;91.60;;
67074;SDS011;53990;50.334;18.640;2023-02-07T08:30:52;191.60;;;93.40;;
67074;SDS011;53990;50.334;18.640;2023-02-07T08:33:20;191.70;;;93.90;;
67074;SDS011;53990;50.334;18.640;2023-02-07T08:35:49;183.50;;;91.30;;
67074;SDS011;53990;50.334;18.640;2023-02-07T08:38:17;176.30;;;84.20;;
67074;SDS011;53990;50.334;18.640;2023-02-07T08:40:44;186.40;;;89.50;;
67074;SDS011;53990;50.334;18.640;2023-02-07T08:43:13;206.00;;;99.10;;
67074;SDS011;53990;50.334;18.640;2023-02-07T08:45:44;195.60;;;102.10;;
67074;SDS011;53990;50.334;18.640;2023-02-07T08:48:13;204.30;;;98.80;;
67074;SDS011;53990;50.334;18.640;2023-02-07T08:50:41;195.20;;;94.60;;
67074;SDS011;53990;50.334;18.640;2023-02-07T08:53:08;190.10;;;94.60;;
67074;SDS011;53990;50.334;18.640;2023-02-07T08:55:39;194.00;;;93.30;;
67074;SDS011;53990;50.334;18.640;2023-02-07T08:58:07;211.50;;;100.20;;
67074;SDS011;53990;50.334;18.640;2023-02-07T09:00:34;208.90;;;99.70;;
67074;SDS011;53990;50.334;18.640;2023-02-07T09:03:03;223.40;;;103.40;;
67074;SDS011;53990;50.334;18.640;2023-02-07T09:05:30;214.30;;;103.00;;
67074;SDS011;53990;50.334;18.640;2023-02-07T09:08:01;203.90;;;97.30;;
67074;SDS011;53990;50.334;18.640;2023-02-07T09:10:29;244.10;;;113.60;;
67074;SDS011;53990;50.334;18.640;2023-02-07T09:12:56;228.30;;;111.40;;
67074;SDS011;53990;50.334;18.640;2023-02-07T09:15:23;226.60;;;109.70;;
67074;SDS011;53990;50.334;18.640;2023-02-07T09:17:52;220.70;;;104.80;;
67074;SDS011;53990;50.334;18.640;2023-02-07T09:20:19;223.50;;;108.00;;
67074;SDS011;53990;50.334;18.640;2023-02-07T09:22:47;243.20;;;114.90;;
67074;SDS011;53990;50.334;18.640;2023-02-07T09:25:36;227.00;;;111.80;;
67074;SDS011;53990;50.334;18.640;2023-02-07T09:28:04;212.70;;;102.20;;
67074;SDS011;53990;50.334;18.640;2023-02-07T09:30:31;222.20;;;107.60;;
67074;SDS011;53990;50.334;18.640;2023-02-07T09:32:59;214.40;;;105.80;;
67074;SDS011;53990;50.334;18.640;2023-02-07T09:35:26;217.00;;;102.40;;
67074;SDS011;53990;50.334;18.640;2023-02-07T09:37:54;209.00;;;99.90;;
67074;SDS011;53990;50.334;18.640;2023-02-07T09:40:21;223.80;;;108.80;;
67074;SDS011;53990;50.334;18.640;2023-02-07T09:45:36;196.60;;;98.30;;
67074;SDS011;53990;50.334;18.640;2023-02-07T09:48:16;196.40;;;98.00;;
67074;SDS011;53990;50.334;18.640;2023-02-07T09:50:53;211.30;;;104.60;;
67074;SDS011;53990;50.334;18.640;2023-02-07T09:53:25;210.60;;;105.60;;
67074;SDS011;53990;50.334;18.640;2023-02-07T09:55:57;218.20;;;110.50;;
67074;SDS011;53990;50.334;18.640;2023-02-07T10:01:01;191.80;;;95.00;;
67074;SDS011;53990;50.334;18.640;2023-02-07T10:03:35;196.20;;;99.60;;
67074;SDS011;53990;50.334;18.640;2023-02-07T10:06:06;175.70;;;89.60;;
67074;SDS011;53990;50.334;18.640;2023-02-07T10:08:40;166.00;;;90.00;;
67074;SDS011;53990;50.334;18.640;2023-02-07T10:11:47;172.70;;;86.50;;
67074;SDS011;53990;50.334;18.640;2023-02-07T10:17:03;203.80;;;101.50;;
67074;SDS011;53990;50.334;18.640;2023-02-07T10:30:50;157.50;;;79.10;;
67074;SDS011;53990;50.334;18.640;2023-02-07T10:33:21;183.40;;;87.80;;
67074;SDS011;53990;50.334;18.640;2023-02-07T10:35:51;168.50;;;82.40;;
67074;SDS011;53990;50.334;18.640;2023-02-07T10:38:27;176.30;;;86.00;;
67074;SDS011;53990;50.334;18.640;2023-02-07T10:41:12;165.00;;;82.60;;
67074;SDS011;53990;50.334;18.640;2023-02-07T10:43:42;136.40;;;71.10;;
67074;SDS011;53990;50.334;18.640;2023-02-07T10:46:13;156.40;;;77.90;;
67074;SDS011;53990;50.334;18.640;2023-02-07T10:54:57;145.00;;;73.20;;
67074;SDS011;53990;50.334;18.640;2023-02-07T10:57:27;139.30;;;71.50;;
67074;SDS011;53990;50.334;18.640;2023-02-07T11:00:15;140.80;;;72.90;;
67074;SDS011;53990;50.334;18.640;2023-02-07T11:02:46;139.60;;;71.10;;
67074;SDS011;53990;50.334;18.640;2023-02-07T11:10:42;140.50;;;71.20;;
67074;SDS011;53990;50.334;18.640;2023-02-07T11:13:19;139.00;;;69.00;;
67074;SDS011;53990;50.334;18.640;2023-02-07T11:16:04;149.30;;;73.20;;
67074;SDS011;53990;50.334;18.640;2023-02-07T11:21:24;134.40;;;67.80;;
67074;SDS011;53990;50.334;18.640;2023-02-07T11:23:53;134.50;;;68.20;;
67074;SDS011;53990;50.334;18.640;2023-02-07T11:26:21;136.00;;;69.70;;
67074;SDS011;53990;50.334;18.640;2023-02-07T11:31:33;147.60;;;74.50;;
67074;SDS011;53990;50.334;18.640;2023-02-07T11:42:55;138.80;;;66.20;;
67074;SDS011;53990;50.334;18.640;2023-02-07T11:45:23;138.20;;;66.40;;
67074;SDS011;53990;50.334;18.640;2023-02-07T11:47:54;155.40;;;75.00;;
67074;SDS011;53990;50.334;18.640;2023-02-07T11:50:43;148.20;;;72.90;;
67074;SDS011;53990;50.334;18.640;2023-02-07T11:53:37;137.90;;;69.80;;
67074;SDS011;53990;50.334;18.640;2023-02-07T11:56:16;118.30;;;60.30;;
67074;SDS011;53990;50.334;18.640;2023-02-07T12:02:30;126.10;;;62.90;;
67074;SDS011;53990;50.334;18.640;2023-02-07T12:07:43;126.70;;;61.80;;
67074;SDS011;53990;50.334;18.640;2023-02-07T12:10:21;124.20;;;63.30;;
67074;SDS011;53990;50.334;18.640;2023-02-07T12:22:06;126.60;;;62.60;;
67074;SDS011;53990;50.334;18.640;2023-02-07T12:24:54;128.10;;;62.60;;
67074;SDS011;53990;50.334;18.640;2023-02-07T12:27:28;108.90;;;55.40;;
67074;SDS011;53990;50.334;18.640;2023-02-07T12:30:03;116.60;;;59.50;;
67074;SDS011;53990;50.334;18.640;2023-02-07T12:32:39;119.80;;;59.40;;
67074;SDS011;53990;50.334;18.640;2023-02-07T12:35:14;108.90;;;56.70;;
67074;SDS011;53990;50.334;18.640;2023-02-07T12:41:15;109.20;;;54.20;;
67074;SDS011;53990;50.334;18.640;2023-02-07T12:47:09;107.50;;;53.40;;
67074;SDS011;53990;50.334;18.640;2023-02-07T12:50:11;116.20;;;57.50;;
67074;SDS011;53990;50.334;18.640;2023-02-07T13:01:05;111.20;;;52.50;;
67074;SDS011;53990;50.334;18.640;2023-02-07T13:03:46;97.10;;;50.50;;
67074;SDS011;53990;50.334;18.640;2023-02-07T13:06:29;104.60;;;52.20;;
67074;SDS011;53990;50.334;18.640;2023-02-07T13:14:24;63.50;;;31.60;;
67074;SDS011;53990;50.334;18.640;2023-02-07T13:19:55;44.30;;;23.30;;
67074;SDS011;53990;50.334;18.640;2023-02-07T13:22:48;54.10;;;28.10;;
67074;SDS011;53990;50.334;18.640;2023-02-07T13:29:10;62.00;;;29.80;;
67074;SDS011;53990;50.334;18.640;2023-02-07T13:34:20;57.00;;;30.10;;
67074;SDS011;53990;50.334;18.640;2023-02-07T13:36:53;60.70;;;31.50;;
67074;SDS011;53990;50.334;18.640;2023-02-07T13:39:54;47.30;;;25.60;;
67074;SDS011;53990;50.334;18.640;2023-02-07T13:48:15;48.60;;;26.90;;
67074;SDS011;53990;50.334;18.640;2023-02-07T13:50:46;43.60;;;24.70;;
67074;SDS011;53990;50.334;18.640;2023-02-07T13:53:23;51.90;;;28.20;;
67074;SDS011;53990;50.334;18.640;2023-02-07T13:55:52;53.80;;;29.20;;
67074;SDS011;53990;50.334;18.640;2023-02-07T14:01:29;48.90;;;26.60;;
67074;SDS011;53990;50.334;18.640;2023-02-07T14:12:00;52.40;;;28.60;;
67074;SDS011;53990;50.334;18.640;2023-02-07T14:14:33;50.10;;;28.10;;
67074;SDS011;53990;50.334;18.640;2023-02-07T14:25:10;114.60;;;50.60;;
67074;SDS011;53990;50.334;18.640;2023-02-07T14:27:39;92.20;;;42.70;;
67074;SDS011;53990;50.334;18.640;2023-02-07T14:33:07;88.00;;;42.80;;
67074;SDS011;53990;50.334;18.640;2023-02-07T14:38:28;85.10;;;43.20;;
67074;SDS011;53990;50.334;18.640;2023-02-07T14:41:03;91.80;;;47.50;;
67074;SDS011;53990;50.334;18.640;2023-02-07T14:43:42;108.20;;;51.70;;
67074;SDS011;53990;50.334;18.640;2023-02-07T14:46:15;109.80;;;55.00;;
67074;SDS011;53990;50.334;18.640;2023-02-07T15:00:01;76.00;;;40.50;;
67074;SDS011;53990;50.334;18.640;2023-02-07T15:02:34;79.00;;;43.60;;
67074;SDS011;53990;50.334;18.640;2023-02-07T15:12:59;85.50;;;44.10;;
67074;SDS011;53990;50.334;18.640;2023-02-07T15:15:43;88.60;;;43.70;;
67074;SDS011;53990;50.334;18.640;2023-02-07T15:18:29;84.80;;;45.50;;
67074;SDS011;53990;50.334;18.640;2023-02-07T15:20:58;90.80;;;47.10;;
67074;SDS011;53990;50.334;18.640;2023-02-07T15:23:28;90.10;;;47.30;;
67074;SDS011;53990;50.334;18.640;2023-02-07T15:25:59;93.60;;;49.90;;
67074;SDS011;53990;50.334;18.640;2023-02-07T15:28:30;99.50;;;48.80;;
67074;SDS011;53990;50.334;18.640;2023-02-07T15:31:02;81.80;;;45.00;;
67074;SDS011;53990;50.334;18.640;2023-02-07T15:33:37;82.80;;;43.80;;
67074;SDS011;53990;50.334;18.640;2023-02-07T15:36:25;91.40;;;47.50;;
67074;SDS011;53990;50.334;18.640;2023-02-07T15:38:55;97.40;;;50.40;;
67074;SDS011;53990;50.334;18.640;2023-02-07T15:41:23;96.30;;;52.40;;
67074;SDS011;53990;50.334;18.640;2023-02-07T15:46:56;97.80;;;52.00;;
67074;SDS011;53990;50.334;18.640;2023-02-07T15:52:07;93.90;;;50.90;;
67074;SDS011;53990;50.334;18.640;2023-02-07T15:54:42;96.10;;;48.50;;
67074;SDS011;53990;50.334;18.640;2023-02-07T15:59:52;84.50;;;44.50;;
67074;SDS011;53990;50.334;18.640;2023-02-07T16:02:27;98.00;;;47.70;;
67074;SDS011;53990;50.334;18.640;2023-02-07T16:05:05;99.40;;;48.10;;
67074;SDS011;53990;50.334;18.640;2023-02-07T16:07:35;100.40;;;50.20;;
67074;SDS011;53990;50.334;18.640;2023-02-07T16:18:39;102.20;;;49.80;;
67074;SDS011;53990;50.334;18.640;2023-02-07T16:21:25;99.00;;;49.00;;
67074;SDS011;53990;50.334;18.640;2023-02-07T16:26:26;98.80;;;47.30;;
67074;SDS011;53990;50.334;18.640;2023-02-07T16:28:54;94.50;;;45.90;;
67074;SDS011;53990;50.334;18.640;2023-02-07T16:31:21;93.40;;;43.70;;
67074;SDS011;53990;50.334;18.640;2023-02-07T16:33:48;90.30;;;46.50;;
67074;SDS011;53990;50.334;18.640;2023-02-07T16:36:17;93.10;;;45.60;;
67074;SDS011;53990;50.334;18.640;2023-02-07T16:38:44;91.70;;;46.30;;
67074;SDS011;53990;50.334;18.640;2023-02-07T16:41:26;99.60;;;50.30;;
67074;SDS011;53990;50.334;18.640;2023-02-07T16:44:04;90.20;;;46.50;;
67074;SDS011;53990;50.334;18.640;2023-02-07T16:46:32;81.10;;;40.90;;
67074;SDS011;53990;50.334;18.640;2023-02-07T16:49:00;80.50;;;40.90;;
67074;SDS011;53990;50.334;18.640;2023-02-07T16:51:28;69.30;;;36.30;;
67074;SDS011;53990;50.334;18.640;2023-02-07T16:53:58;67.60;;;35.80;;
67074;SDS011;53990;50.334;18.640;2023-02-07T16:56:26;65.10;;;34.00;;
67074;SDS011;53990;50.334;18.640;2023-02-07T16:58:53;67.20;;;34.90;;
67074;SDS011;53990;50.334;18.640;2023-02-07T17:01:21;60.90;;;34.10;;
67074;SDS011;53990;50.334;18.640;2023-02-07T17:03:48;64.30;;;34.00;;
67074;SDS011;53990;50.334;18.640;2023-02-07T17:06:18;67.40;;;35.70;;
67074;SDS011;53990;50.334;18.640;2023-02-07T17:08:46;65.90;;;36.90;;
67074;SDS011;53990;50.334;18.640;2023-02-07T17:11:17;68.50;;;39.00;;
67074;SDS011;53990;50.334;18.640;2023-02-07T17:13:55;65.80;;;37.80;;
67074;SDS011;53990;50.334;18.640;2023-02-07T17:16:24;61.60;;;34.40;;
67074;SDS011;53990;50.334;18.640;2023-02-07T17:18:52;64.00;;;35.10;;
67074;SDS011;53990;50.334;18.640;2023-02-07T17:21:20;59.60;;;34.40;;
67074;SDS011;53990;50.334;18.640;2023-02-07T17:23:49;59.60;;;33.70;;